Time;durP1;ratioP1;P1;durP2;ratioP2;P2;SDS_P1;SDS_P2;PMS_P1;PMS_P2;Temp;Humidity;BMP_temperature;BMP_pressure;BME280_temperature;BME280_humidity;BME280_pressure;Samples;Min_cycle;Max_cycle;Signal;HPM_P1;HPM_P2
2024/01/31 00:02:24;;;;;;;;;;;;;;;;;;4973222;28;19961;-67
2024/01/31 00:04:49;;;;;;;;;;;;;;;;;;4989166;28;20016;-67
2024/01/31 00:07:15;;;;;;;;;;;;;;;;;;4993453;28;20876;-67
2024/01/31 00:09:40;;;;;;;;;;;;;;;;;;4982488;28;20013;-67
2024/01/31 00:12:08;;;;;;;;;;;;;;;;;;4980184;28;19921;-66
2024/01/31 00:14:33;;;;;;;;;;;;;;;;;;5005707;28;19917;-67
2024/01/31 00:17:01;;;;;;;;;;;;;;;;;;4991729;28;20396;-65
2024/01/31 00:19:29;;;;;;;;;;;;;;;;;;4972376;28;19964;-67
2024/01/31 00:21:54;;;;;;;;;;;;;;;;;;4973828;28;21160;-71
2024/01/31 00:24:20;;;;;;;;;;;;;;;;;;4982075;28;19957;-69
2024/01/31 00:26:45;;;;;;;;;;;;;;;;;;5002975;28;20518;-67
2024/01/31 00:29:10;;;;;;;;;;;;;;;;;;4990470;28;20653;-67
2024/01/31 00:31:38;;;;;;;;;;;;;;;;;;5009626;28;19932;-68
2024/01/31 00:34:03;;;;;;;;;;;;;;;;;;4988908;28;19921;-67
2024/01/31 00:36:32;;;;;;;;;;;;;;;;;;5003182;28;19917;-67
2024/01/31 00:39:02;;;;;;;;;;;;;;;;;;4989603;28;19923;-68
2024/01/31 00:41:29;;;;;;;;;;;;;;;;;;4987152;28;20012;-67
2024/01/31 00:43:57;;;;;;;;;;;;;;;;;;4986252;28;20018;-67
2024/01/31 00:46:28;;;;;;;;;;;;;;;;;;4987593;28;19928;-67
2024/01/31 00:48:53;;;;;;;;;;;;;;;;;;4972817;28;19936;-67
2024/01/31 00:51:19;;;;;;;;;;;;;;;;;;5004142;28;19921;-67
2024/01/31 00:53:46;;;;;;;;;;;;;;;;;;5001825;28;20191;-67
2024/01/31 00:56:12;;;;;;;;;;;;;;;;;;5001169;28;19921;-67
2024/01/31 00:58:37;;;;;;;;;;;;;;;;;;5002512;28;19933;-70
2024/01/31 01:01:02;;;;;;;;;;;;;;;;;;4982785;28;19917;-67
2024/01/31 01:03:32;;;;;;;;;;;;;;;;;;5007168;28;19917;-67
2024/01/31 01:05:57;;;;;;;;;;;;;;;;;;4977998;28;19921;-67
2024/01/31 01:08:28;;;;;;;;;;;;;;;;;;5011341;28;19932;-66
2024/01/31 01:10:56;;;;;;;;;;;;;;;;;;4991507;28;19918;-67
2024/01/31 01:13:21;;;;;;;;;;;;;;;;;;4988993;28;19917;-67
2024/01/31 01:15:46;;;;;;;;;;;;;;;;;;4992411;28;20865;-67
2024/01/31 01:18:11;;;;;;;;;;;;;;;;;;4993622;28;20016;-66
2024/01/31 01:20:37;;;;;;;;;;;;;;;;;;4993208;28;20024;-67
2024/01/31 01:23:06;;;;;;;;;;;;;;;;;;5009301;28;19921;-66
2024/01/31 01:25:31;;;;;;;;;;;;;;;;;;5004686;28;19936;-66
2024/01/31 01:27:59;;;;;;;;;;;;;;;;;;4995471;28;19930;-67
2024/01/31 01:30:24;;;;;;;;;;;;;;;;;;4992896;28;20380;-67
2024/01/31 01:32:50;;;;;;;;;;;;;;;;;;4994743;28;19968;-67
2024/01/31 01:35:16;;;;;;;;;;;;;;;;;;4976901;28;20395;-66
2024/01/31 01:37:41;;;;;;;;;;;;;;;;;;5006562;28;20040;-68
2024/01/31 01:40:06;;;;;;;;;;;;;;;;;;4976491;28;19917;-67
2024/01/31 01:42:31;;;;;;;;;;;;;;;;;;4993731;28;20012;-68
2024/01/31 01:44:57;;;;;;;;;;;;;;;;;;4988766;28;20048;-66
2024/01/31 01:47:24;;;;;;;;;;;;;;;;;;4988887;28;19921;-67
2024/01/31 01:49:52;;;;;;;;;;;;;;;;;;5003779;28;19913;-67
2024/01/31 01:52:18;;;;;;;;;;;;;;;;;;5003907;28;20678;-66
2024/01/31 01:54:44;;;;;;;;;;;;;;;;;;4980470;28;19960;-67
2024/01/31 01:57:12;;;;;;;;;;;;;;;;;;4990741;28;19925;-67
2024/01/31 01:59:37;;;;;;;;;;;;;;;;;;4984647;28;20258;-67
2024/01/31 02:02:07;;;;;;;;;;;;;;;;;;4989680;28;20072;-66
2024/01/31 02:04:33;;;;;;;;;;;;;;;;;;5006626;28;20055;-67
2024/01/31 02:07:00;;;;;;;;;;;;;;;;;;4988041;28;20830;-66
2024/01/31 02:09:28;;;;;;;;;;;;;;;;;;4991651;28;19928;-67
2024/01/31 02:11:53;;;;;;;;;;;;;;;;;;5003674;28;20308;-67
2024/01/31 02:14:19;;;;;;;;;;;;;;;;;;4988399;28;19926;-66
2024/01/31 02:16:46;;;;;;;;;;;;;;;;;;4970425;28;19917;-66
2024/01/31 02:19:12;;;;;;;;;;;;;;;;;;4969849;28;19928;-67
2024/01/31 02:21:40;;;;;;;;;;;;;;;;;;4989894;28;19917;-66
2024/01/31 02:24:05;;;;;;;;;;;;;;;;;;4968184;28;20012;-67
2024/01/31 02:26:30;;;;;;;;;;;;;;;;;;4955777;28;19929;-67
2024/01/31 02:28:58;;;;;;;;;;;;;;;;;;4959633;28;19940;-66
2024/01/31 02:31:23;;;;;;;;;;;;;;;;;;4972197;28;19929;-67
2024/01/31 02:33:51;;;;;;;;;;;;;;;;;;4956646;28;19935;-67
2024/01/31 02:36:17;;;;;;;;;;;;;;;;;;4968977;28;20105;-66
2024/01/31 02:38:43;;;;;;;;;;;;;;;;;;4954311;28;19935;-66
2024/01/31 02:41:08;;;;;;;;;;;;;;;;;;4987240;28;19947;-65
2024/01/31 02:43:39;;;;;;;;;;;;;;;;;;4957768;28;19924;-67
2024/01/31 02:46:04;;;;;;;;;;;;;;;;;;4987351;28;20000;-67
2024/01/31 02:48:32;;;;;;;;;;;;;;;;;;4975620;28;20004;-68
2024/01/31 02:50:57;;;;;;;;;;;;;;;;;;4974977;28;19964;-66
2024/01/31 02:53:22;;;;;;;;;;;;;;;;;;4959281;28;19929;-66
2024/01/31 02:55:48;;;;;;;;;;;;;;;;;;4987558;28;19918;-66
2024/01/31 02:58:16;;;;;;;;;;;;;;;;;;4956366;28;20004;-67
2024/01/31 03:00:41;;;;;;;;;;;;;;;;;;4974170;28;19921;-67
2024/01/31 03:03:06;;;;;;;;;;;;;;;;;;4971752;28;20442;-67
2024/01/31 03:05:32;;;;;;;;;;;;;;;;;;4971073;28;21473;-66
2024/01/31 03:07:57;;;;;;;;;;;;;;;;;;4954971;28;19934;-66
2024/01/31 03:10:25;;;;;;;;;;;;;;;;;;4975370;28;20024;-68
2024/01/31 03:12:50;;;;;;;;;;;;;;;;;;4974010;28;20368;-67
2024/01/31 03:15:15;;;;;;;;;;;;;;;;;;4982205;28;20107;-66
2024/01/31 03:17:40;;;;;;;;;;;;;;;;;;4973900;28;19916;-66
2024/01/31 03:20:08;;;;;;;;;;;;;;;;;;5001799;28;19932;-68
2024/01/31 03:22:37;;;;;;;;;;;;;;;;;;4986230;28;20379;-66
2024/01/31 03:25:07;;;;;;;;;;;;;;;;;;5002855;28;19921;-66
2024/01/31 03:27:35;;;;;;;;;;;;;;;;;;4983191;28;19929;-66
2024/01/31 03:30:03;;;;;;;;;;;;;;;;;;4986634;28;20128;-66
2024/01/31 03:32:28;;;;;;;;;;;;;;;;;;4992936;28;19952;-67
2024/01/31 03:34:57;;;;;;;;;;;;;;;;;;4976650;28;19921;-66
2024/01/31 03:37:22;;;;;;;;;;;;;;;;;;4981901;28;19924;-68
2024/01/31 03:39:50;;;;;;;;;;;;;;;;;;4986351;28;19956;-67
2024/01/31 03:42:16;;;;;;;;;;;;;;;;;;4980779;28;20015;-66
2024/01/31 03:44:41;;;;;;;;;;;;;;;;;;4972752;28;19929;-66
2024/01/31 03:47:06;;;;;;;;;;;;;;;;;;5002012;28;19921;-67
2024/01/31 03:49:34;;;;;;;;;;;;;;;;;;5003760;28;20534;-66
2024/01/31 03:51:59;;;;;;;;;;;;;;;;;;4975628;28;20415;-67
2024/01/31 03:54:25;;;;;;;;;;;;;;;;;;5005219;28;19921;-65
2024/01/31 03:56:50;;;;;;;;;;;;;;;;;;5006051;28;20550;-67
2024/01/31 03:59:15;;;;;;;;;;;;;;;;;;4971614;28;19917;-67
2024/01/31 04:01:43;;;;;;;;;;;;;;;;;;4988598;28;19917;-67
2024/01/31 04:04:09;;;;;;;;;;;;;;;;;;5004244;28;19917;-66
2024/01/31 04:06:36;;;;;;;;;;;;;;;;;;4975475;28;19940;-66
2024/01/31 04:09:05;;;;;;;;;;;;;;;;;;4984509;28;19921;-66
2024/01/31 04:11:34;;;;;;;;;;;;;;;;;;4991704;28;19921;-66
2024/01/31 04:13:59;;;;;;;;;;;;;;;;;;4972648;28;20423;-66
2024/01/31 04:16:24;;;;;;;;;;;;;;;;;;5005538;28;19933;-66
2024/01/31 04:18:55;;;;;;;;;;;;;;;;;;4973760;28;19918;-65
2024/01/31 04:21:20;;;;;;;;;;;;;;;;;;5008810;28;19997;-67
2024/01/31 04:23:46;;;;;;;;;;;;;;;;;;5003745;28;20402;-66
2024/01/31 04:26:13;;;;;;;;;;;;;;;;;;4987408;28;19918;-66
2024/01/31 04:28:39;;;;;;;;;;;;;;;;;;4991622;28;19930;-67
2024/01/31 04:31:06;;;;;;;;;;;;;;;;;;4984592;28;19921;-66
2024/01/31 04:33:32;;;;;;;;;;;;;;;;;;4986542;28;19928;-66
2024/01/31 04:35:57;;;;;;;;;;;;;;;;;;5006432;28;20226;-67
2024/01/31 04:38:22;;;;;;;;;;;;;;;;;;4984537;28;20577;-66
2024/01/31 04:40:48;;;;;;;;;;;;;;;;;;4972691;28;19921;-65
2024/01/31 04:43:13;;;;;;;;;;;;;;;;;;4987971;28;19944;-67
2024/01/31 04:45:38;;;;;;;;;;;;;;;;;;4976723;28;19971;-66
2024/01/31 04:48:09;;;;;;;;;;;;;;;;;;4975066;28;19986;-65
2024/01/31 04:50:34;;;;;;;;;;;;;;;;;;4975059;28;20293;-66
2024/01/31 04:52:59;;;;;;;;;;;;;;;;;;4988124;28;19928;-66
2024/01/31 04:55:25;;;;;;;;;;;;;;;;;;4972631;28;19929;-66
2024/01/31 04:57:50;;;;;;;;;;;;;;;;;;5000296;28;19953;-67
2024/01/31 05:00:23;;;;;;;;;;;;;;;;;;5002500;28;19921;-66
2024/01/31 05:02:51;;;;;;;;;;;;;;;;;;4988455;28;19924;-67
2024/01/31 05:05:16;;;;;;;;;;;;;;;;;;4988654;28;19940;-65
2024/01/31 05:07:44;;;;;;;;;;;;;;;;;;4986763;28;21267;-66
2024/01/31 05:10:12;;;;;;;;;;;;;;;;;;4998599;28;20016;-66
2024/01/31 05:12:38;;;;;;;;;;;;;;;;;;4973795;28;19921;-65
2024/01/31 05:15:04;;;;;;;;;;;;;;;;;;4987170;28;19931;-65
2024/01/31 05:17:32;;;;;;;;;;;;;;;;;;5000717;28;19917;-65
2024/01/31 05:20:03;;;;;;;;;;;;;;;;;;4988496;28;19968;-66
2024/01/31 05:22:28;;;;;;;;;;;;;;;;;;4988456;28;19947;-66
2024/01/31 05:24:53;;;;;;;;;;;;;;;;;;4985562;28;19985;-67
2024/01/31 05:27:18;;;;;;;;;;;;;;;;;;4981054;28;19925;-65
2024/01/31 05:29:44;;;;;;;;;;;;;;;;;;4971657;28;20405;-66
2024/01/31 05:32:09;;;;;;;;;;;;;;;;;;4972176;28;19917;-65
2024/01/31 05:34:37;;;;;;;;;;;;;;;;;;4972065;28;20052;-66
2024/01/31 05:37:05;;;;;;;;;;;;;;;;;;5001975;28;20389;-66
2024/01/31 05:39:30;;;;;;;;;;;;;;;;;;4983762;28;19928;-66
2024/01/31 05:41:55;;;;;;;;;;;;;;;;;;4972163;28;20562;-66
2024/01/31 05:44:21;;;;;;;;;;;;;;;;;;4988010;28;19918;-66
2024/01/31 05:46:49;;;;;;;;;;;;;;;;;;4970861;28;19918;-67
2024/01/31 05:49:14;;;;;;;;;;;;;;;;;;4993379;28;19925;-66
2024/01/31 05:51:40;;;;;;;;;;;;;;;;;;4987757;28;21115;-66
2024/01/31 05:54:08;;;;;;;;;;;;;;;;;;4992066;28;19931;-66
2024/01/31 05:56:36;;;;;;;;;;;;;;;;;;4970133;28;19917;-67
2024/01/31 05:59:02;;;;;;;;;;;;;;;;;;4973666;28;20009;-66
2024/01/31 06:01:30;;;;;;;;;;;;;;;;;;4986504;28;19928;-66
2024/01/31 06:03:58;;;;;;;;;;;;;;;;;;4990002;28;19921;-65
2024/01/31 06:06:26;;;;;;;;;;;;;;;;;;4985261;28;20701;-66
2024/01/31 06:08:51;;;;;;;;;;;;;;;;;;5006615;28;19925;-67
2024/01/31 06:11:17;;;;;;;;;;;;;;;;;;4991366;28;19929;-66
2024/01/31 06:13:42;;;;;;;;;;;;;;;;;;4990548;28;19931;-64
2024/01/31 06:16:10;;;;;;;;;;;;;;;;;;4976905;28;19964;-65
2024/01/31 06:18:37;;;;;;;;;;;;;;;;;;5004860;28;20325;-64
2024/01/31 06:21:03;;;;;;;;;;;;;;;;;;4973877;28;19995;-64
2024/01/31 06:23:28;;;;;;;;;;;;;;;;;;4978250;28;19925;-64
2024/01/31 06:25:56;;;;;;;;;;;;;;;;;;4977095;28;20028;-64
2024/01/31 06:28:24;;;;;;;;;;;;;;;;;;4991033;28;20392;-64
2024/01/31 06:30:59;;;;;;;;;;;;;;;;;;4995314;28;19928;-64
2024/01/31 06:33:27;;;;;;;;;;;;;;;;;;4994411;28;19940;-64
2024/01/31 06:35:55;;;;;;;;;;;;;;;;;;4991376;28;19917;-65
2024/01/31 06:38:24;;;;;;;;;;;;;;;;;;4991237;28;20627;-64
2024/01/31 06:40:49;;;;;;;;;;;;;;;;;;5003925;28;19921;-64
2024/01/31 06:43:15;;;;;;;;;;;;;;;;;;4993034;28;20387;-64
2024/01/31 06:45:40;;;;;;;;;;;;;;;;;;4988278;28;20369;-65
2024/01/31 06:48:08;;;;;;;;;;;;;;;;;;5005347;28;19960;-64
2024/01/31 06:50:36;;;;;;;;;;;;;;;;;;4970543;28;20016;-64
2024/01/31 06:53:02;;;;;;;;;;;;;;;;;;4973444;28;19917;-64
2024/01/31 06:55:27;;;;;;;;;;;;;;;;;;5005987;28;20027;-64
2024/01/31 06:57:52;;;;;;;;;;;;;;;;;;5006470;28;19917;-64
2024/01/31 07:00:18;;;;;;;;;;;;;;;;;;4974826;28;20234;-64
2024/01/31 07:02:45;;;;;;;;;;;;;;;;;;4978353;28;19921;-64
2024/01/31 07:05:11;;;;;;;;;;;;;;;;;;4987781;28;19920;-65
2024/01/31 07:07:36;;;;;;;;;;;;;;;;;;4988034;28;19925;-65
2024/01/31 07:10:01;;;;;;;;;;;;;;;;;;4989636;28;20012;-64
2024/01/31 07:12:26;;;;;;;;;;;;;;;;;;4989710;28;20015;-63
2024/01/31 07:14:52;;;;;;;;;;;;;;;;;;4985210;28;19965;-64
2024/01/31 07:17:17;;;;;;;;;;;;;;;;;;4988341;28;21118;-64
2024/01/31 07:19:42;;;;;;;;;;;;;;;;;;5006724;28;19936;-64
2024/01/31 07:22:11;;;;;;;;;;;;;;;;;;4988309;28;19928;-64
2024/01/31 07:24:39;;;;;;;;;;;;;;;;;;5007177;28;20008;-64
2024/01/31 07:27:04;;;;;;;;;;;;;;;;;;4975517;28;19921;-63
2024/01/31 07:29:29;;;;;;;;;;;;;;;;;;5004853;28;19917;-64
2024/01/31 07:31:57;;;;;;;;;;;;;;;;;;4989325;28;19999;-64
2024/01/31 07:34:25;;;;;;;;;;;;;;;;;;5009543;28;19918;-64
2024/01/31 07:36:50;;;;;;;;;;;;;;;;;;4991473;28;19921;-64
2024/01/31 07:39:15;;;;;;;;;;;;;;;;;;4993270;28;20776;-63
2024/01/31 07:41:43;;;;;;;;;;;;;;;;;;5007214;28;19970;-64
2024/01/31 07:44:08;;;;;;;;;;;;;;;;;;4991552;28;20047;-65
2024/01/31 07:46:36;;;;;;;;;;;;;;;;;;5006173;28;19967;-63
2024/01/31 07:49:01;;;;;;;;;;;;;;;;;;4978375;28;19924;-64
2024/01/31 07:51:27;;;;;;;;;;;;;;;;;;4993863;28;19996;-64
2024/01/31 07:53:52;;;;;;;;;;;;;;;;;;4988124;28;19917;-64
2024/01/31 07:56:17;;;;;;;;;;;;;;;;;;4990379;28;20474;-64
2024/01/31 07:58:43;;;;;;;;;;;;;;;;;;5009024;28;19948;-64
2024/01/31 08:01:11;;;;;;;;;;;;;;;;;;4974499;28;19945;-64
2024/01/31 08:03:41;;;;;;;;;;;;;;;;;;4976725;28;20509;-64
2024/01/31 08:06:06;;;;;;;;;;;;;;;;;;4990153;28;19924;-63
2024/01/31 08:08:36;;;;;;;;;;;;;;;;;;5006825;28;20805;-63
2024/01/31 08:11:01;;;;;;;;;;;;;;;;;;4994402;28;19928;-63
2024/01/31 08:13:26;;;;;;;;;;;;;;;;;;4991605;28;19922;-63
2024/01/31 08:15:52;;;;;;;;;;;;;;;;;;4988168;28;19921;-64
2024/01/31 08:18:17;;;;;;;;;;;;;;;;;;5005310;28;19928;-64
2024/01/31 08:20:42;;;;;;;;;;;;;;;;;;5007415;28;19921;-64
2024/01/31 08:23:07;;;;;;;;;;;;;;;;;;4990929;28;20212;-64
2024/01/31 08:25:35;;;;;;;;;;;;;;;;;;5004861;28;20035;-64
2024/01/31 08:28:03;;;;;;;;;;;;;;;;;;4989071;28;20379;-66
2024/01/31 08:30:31;;;;;;;;;;;;;;;;;;4989389;28;20421;-64
2024/01/31 08:33:00;;;;;;;;;;;;;;;;;;4992078;28;20074;-64
2024/01/31 08:35:25;;;;;;;;;;;;;;;;;;4989840;28;19952;-64
2024/01/31 08:37:54;;;;;;;;;;;;;;;;;;5007521;28;20157;-64
2024/01/31 08:40:20;;;;;;;;;;;;;;;;;;4975239;28;19917;-64
2024/01/31 08:42:48;;;;;;;;;;;;;;;;;;4989548;28;20023;-66
2024/01/31 08:45:13;;;;;;;;;;;;;;;;;;4991719;28;19921;-64
2024/01/31 08:47:39;;;;;;;;;;;;;;;;;;5007491;28;19932;-65
2024/01/31 08:50:04;;;;;;;;;;;;;;;;;;5006705;28;19917;-65
2024/01/31 08:52:29;;;;;;;;;;;;;;;;;;4977709;28;19916;-63
2024/01/31 08:54:55;;;;;;;;;;;;;;;;;;4986787;28;20525;-63
2024/01/31 08:57:23;;;;;;;;;;;;;;;;;;4993535;28;19921;-65
2024/01/31 08:59:49;;;;;;;;;;;;;;;;;;5007061;28;19918;-65
2024/01/31 09:02:17;;;;;;;;;;;;;;;;;;4990425;28;19921;-65
2024/01/31 09:04:45;;;;;;;;;;;;;;;;;;4974375;28;19921;-64
2024/01/31 09:07:10;;;;;;;;;;;;;;;;;;4993745;28;19963;-64
2024/01/31 09:09:38;;;;;;;;;;;;;;;;;;4990682;28;20364;-64
2024/01/31 09:12:06;;;;;;;;;;;;;;;;;;4993370;28;19924;-64
2024/01/31 09:14:34;;;;;;;;;;;;;;;;;;5005412;28;19917;-64
2024/01/31 09:17:05;;;;;;;;;;;;;;;;;;4992341;28;20008;-65
2024/01/31 09:19:30;;;;;;;;;;;;;;;;;;4970895;28;21331;-64
2024/01/31 09:21:58;;;;;;;;;;;;;;;;;;4976414;28;19976;-65
2024/01/31 09:24:24;;;;;;;;;;;;;;;;;;4993916;28;20000;-64
2024/01/31 09:26:51;;;;;;;;;;;;;;;;;;5006267;28;20471;-66
2024/01/31 09:29:19;;;;;;;;;;;;;;;;;;5004518;28;19929;-64
2024/01/31 09:31:44;;;;;;;;;;;;;;;;;;5005799;28;19968;-65
2024/01/31 09:34:09;;;;;;;;;;;;;;;;;;4997429;28;19921;-65
2024/01/31 09:36:38;;;;;;;;;;;;;;;;;;5004736;28;19990;-64
2024/01/31 09:39:05;;;;;;;;;;;;;;;;;;4999296;28;19928;-65
2024/01/31 09:41:34;;;;;;;;;;;;;;;;;;5008434;28;20329;-65
2024/01/31 09:44:05;;;;;;;;;;;;;;;;;;5011261;28;19921;-64
2024/01/31 09:46:30;;;;;;;;;;;;;;;;;;5012502;28;20582;-65
2024/01/31 09:48:55;;;;;;;;;;;;;;;;;;5012990;28;20335;-65
2024/01/31 09:51:24;;;;;;;;;;;;;;;;;;4991918;28;19914;-65
2024/01/31 09:53:52;;;;;;;;;;;;;;;;;;4992483;28;19971;-65
2024/01/31 09:56:17;;;;;;;;;;;;;;;;;;4988017;28;20018;-66
2024/01/31 09:58:43;;;;;;;;;;;;;;;;;;4987889;28;19917;-65
2024/01/31 10:01:08;;;;;;;;;;;;;;;;;;5010101;28;20035;-64
2024/01/31 10:03:33;;;;;;;;;;;;;;;;;;4973216;28;20014;-65
2024/01/31 10:06:03;;;;;;;;;;;;;;;;;;4993699;28;21983;-64
2024/01/31 10:08:32;;;;;;;;;;;;;;;;;;4974789;28;20016;-66
2024/01/31 10:11:02;;;;;;;;;;;;;;;;;;5006003;28;20521;-64
2024/01/31 10:13:33;;;;;;;;;;;;;;;;;;4994091;28;20003;-64
2024/01/31 10:15:58;;;;;;;;;;;;;;;;;;5007571;28;19925;-67
2024/01/31 10:18:27;;;;;;;;;;;;;;;;;;4994291;28;19947;-64
2024/01/31 10:20:52;;;;;;;;;;;;;;;;;;4988309;28;20011;-64
2024/01/31 10:23:18;;;;;;;;;;;;;;;;;;4976811;28;19975;-64
2024/01/31 10:25:46;;;;;;;;;;;;;;;;;;5003345;28;19929;-67
2024/01/31 10:28:11;;;;;;;;;;;;;;;;;;4991343;28;19929;-65
2024/01/31 10:30:36;;;;;;;;;;;;;;;;;;4989485;28;19987;-65
2024/01/31 10:33:02;;;;;;;;;;;;;;;;;;4991464;28;19924;-65
2024/01/31 10:35:32;;;;;;;;;;;;;;;;;;4991761;28;20857;-65
2024/01/31 10:37:58;;;;;;;;;;;;;;;;;;4985666;28;20336;-66
2024/01/31 10:40:23;;;;;;;;;;;;;;;;;;4986340;28;19927;-65
2024/01/31 10:42:48;;;;;;;;;;;;;;;;;;5004467;28;19980;-64
2024/01/31 10:45:13;;;;;;;;;;;;;;;;;;5002478;28;19918;-64
2024/01/31 10:47:43;;;;;;;;;;;;;;;;;;4988980;28;19927;-64
2024/01/31 10:50:08;;;;;;;;;;;;;;;;;;4975584;28;20255;-65
2024/01/31 10:52:34;;;;;;;;;;;;;;;;;;5002663;28;19940;-66
2024/01/31 10:55:02;;;;;;;;;;;;;;;;;;4974917;28;19928;-64
2024/01/31 10:57:30;;;;;;;;;;;;;;;;;;4994574;28;19941;-64
2024/01/31 10:59:55;;;;;;;;;;;;;;;;;;4994147;28;19917;-64
2024/01/31 11:02:21;;;;;;;;;;;;;;;;;;4986641;28;19921;-65
2024/01/31 11:04:46;;;;;;;;;;;;;;;;;;4996185;28;20368;-64
2024/01/31 11:07:12;;;;;;;;;;;;;;;;;;5004259;28;19952;-65
2024/01/31 11:09:37;;;;;;;;;;;;;;;;;;4990605;28;19921;-65
2024/01/31 11:12:06;;;;;;;;;;;;;;;;;;4995896;28;20015;-64
2024/01/31 11:14:31;;;;;;;;;;;;;;;;;;5004792;28;20407;-64
2024/01/31 11:16:57;;;;;;;;;;;;;;;;;;4992218;28;19917;-65
2024/01/31 11:19:25;;;;;;;;;;;;;;;;;;5006459;28;19927;-64
2024/01/31 11:21:50;;;;;;;;;;;;;;;;;;4975313;28;19932;-64
2024/01/31 11:24:15;;;;;;;;;;;;;;;;;;5010420;28;20655;-65
2024/01/31 11:26:41;;;;;;;;;;;;;;;;;;5004078;28;19967;-64
2024/01/31 11:29:08;;;;;;;;;;;;;;;;;;4974340;28;20043;-64
2024/01/31 11:31:35;;;;;;;;;;;;;;;;;;4991289;28;19917;-65
2024/01/31 11:34:01;;;;;;;;;;;;;;;;;;4985725;28;19928;-64
2024/01/31 11:36:26;;;;;;;;;;;;;;;;;;5007656;28;19913;-65
2024/01/31 11:38:51;;;;;;;;;;;;;;;;;;4979563;28;19923;-64
2024/01/31 11:41:20;;;;;;;;;;;;;;;;;;4977791;28;20260;-65
2024/01/31 11:43:45;;;;;;;;;;;;;;;;;;4983737;28;19917;-65
2024/01/31 11:46:10;;;;;;;;;;;;;;;;;;4975007;28;19963;-65
2024/01/31 11:48:38;;;;;;;;;;;;;;;;;;4984214;28;19928;-64
2024/01/31 11:51:04;;;;;;;;;;;;;;;;;;4993949;28;20294;-64
2024/01/31 11:53:29;;;;;;;;;;;;;;;;;;5007607;28;20124;-65
2024/01/31 11:55:54;;;;;;;;;;;;;;;;;;4985631;28;19921;-65
2024/01/31 11:58:20;;;;;;;;;;;;;;;;;;5005327;28;20051;-65
2024/01/31 12:00:45;;;;;;;;;;;;;;;;;;4986706;28;20148;-65
2024/01/31 12:03:10;;;;;;;;;;;;;;;;;;4977162;28;20047;-65
2024/01/31 12:05:36;;;;;;;;;;;;;;;;;;4973458;28;19921;-66
2024/01/31 12:08:04;;;;;;;;;;;;;;;;;;4971080;28;19948;-66
2024/01/31 12:10:29;;;;;;;;;;;;;;;;;;5004107;28;19961;-66
2024/01/31 12:12:55;;;;;;;;;;;;;;;;;;4994341;28;19913;-64
2024/01/31 12:15:23;;;;;;;;;;;;;;;;;;4993270;28;19944;-64
2024/01/31 12:17:49;;;;;;;;;;;;;;;;;;4994265;28;20463;-65
2024/01/31 12:20:16;;;;;;;;;;;;;;;;;;5003191;28;20463;-64
2024/01/31 12:22:42;;;;;;;;;;;;;;;;;;4987092;28;19997;-64
2024/01/31 12:25:07;;;;;;;;;;;;;;;;;;5006532;28;19924;-65
2024/01/31 12:27:32;;;;;;;;;;;;;;;;;;4976776;28;20076;-65
2024/01/31 12:30:00;;;;;;;;;;;;;;;;;;4976024;28;20716;-66
2024/01/31 12:32:28;;;;;;;;;;;;;;;;;;4972982;28;19918;-66
2024/01/31 12:34:56;;;;;;;;;;;;;;;;;;4988290;28;19967;-66
2024/01/31 12:37:21;;;;;;;;;;;;;;;;;;5005386;28;20051;-66
2024/01/31 12:39:46;;;;;;;;;;;;;;;;;;4992886;28;19948;-65
2024/01/31 12:42:14;;;;;;;;;;;;;;;;;;4986116;28;19921;-66
2024/01/31 12:44:39;;;;;;;;;;;;;;;;;;4989290;28;19925;-64
2024/01/31 12:47:08;;;;;;;;;;;;;;;;;;4988043;28;19917;-65
2024/01/31 12:49:33;;;;;;;;;;;;;;;;;;5002981;28;19929;-65
2024/01/31 12:51:58;;;;;;;;;;;;;;;;;;4988107;28;19921;-65
2024/01/31 12:54:24;;;;;;;;;;;;;;;;;;5003974;28;19996;-64
2024/01/31 12:56:49;;;;;;;;;;;;;;;;;;4971555;28;19952;-64
2024/01/31 12:59:18;;;;;;;;;;;;;;;;;;5004618;28;20354;-66
2024/01/31 13:01:43;;;;;;;;;;;;;;;;;;4993003;28;19917;-64
2024/01/31 13:04:08;;;;;;;;;;;;;;;;;;4981715;28;19983;-65
2024/01/31 13:06:34;;;;;;;;;;;;;;;;;;4972967;28;19921;-65
2024/01/31 13:08:59;;;;;;;;;;;;;;;;;;5003639;28;19928;-64
2024/01/31 13:11:24;;;;;;;;;;;;;;;;;;4982490;28;19933;-66
2024/01/31 13:13:50;;;;;;;;;;;;;;;;;;5004900;28;19917;-66
2024/01/31 13:16:15;;;;;;;;;;;;;;;;;;4984523;28;19928;-65
2024/01/31 13:18:40;;;;;;;;;;;;;;;;;;4981030;28;19952;-64
2024/01/31 13:21:06;;;;;;;;;;;;;;;;;;4991106;28;19960;-65
2024/01/31 13:23:35;;;;;;;;;;;;;;;;;;4999599;28;19927;-66
2024/01/31 13:26:00;;;;;;;;;;;;;;;;;;4989704;28;19921;-64
2024/01/31 13:28:26;;;;;;;;;;;;;;;;;;4979784;28;20384;-65
2024/01/31 13:30:51;;;;;;;;;;;;;;;;;;4990236;28;20281;-65
2024/01/31 13:33:16;;;;;;;;;;;;;;;;;;4987085;28;19975;-65
2024/01/31 13:35:44;;;;;;;;;;;;;;;;;;4999970;28;19925;-65
2024/01/31 13:38:09;;;;;;;;;;;;;;;;;;5004604;28;19956;-65
2024/01/31 13:40:34;;;;;;;;;;;;;;;;;;4971907;28;19917;-65
2024/01/31 13:43:03;;;;;;;;;;;;;;;;;;5003464;28;19948;-65
2024/01/31 13:45:28;;;;;;;;;;;;;;;;;;4989121;28;20416;-65
2024/01/31 13:47:55;;;;;;;;;;;;;;;;;;4975917;28;20458;-65
2024/01/31 13:50:24;;;;;;;;;;;;;;;;;;5003041;28;19922;-66
2024/01/31 13:52:49;;;;;;;;;;;;;;;;;;4968838;28;19991;-65
2024/01/31 13:55:14;;;;;;;;;;;;;;;;;;5000904;28;20015;-65
2024/01/31 13:57:42;;;;;;;;;;;;;;;;;;4986654;28;20479;-65
2024/01/31 14:00:10;;;;;;;;;;;;;;;;;;5002775;28;19953;-68
2024/01/31 14:02:35;;;;;;;;;;;;;;;;;;4990596;28;19929;-65
2024/01/31 14:05:03;;;;;;;;;;;;;;;;;;4974718;28;20440;-67
2024/01/31 14:07:30;;;;;;;;;;;;;;;;;;4989926;28;19924;-66
2024/01/31 14:10:00;;;;;;;;;;;;;;;;;;4989424;28;19928;-64
2024/01/31 14:12:25;;;;;;;;;;;;;;;;;;5007180;28;19921;-65
2024/01/31 14:14:50;;;;;;;;;;;;;;;;;;4975891;28;19917;-66
2024/01/31 14:17:16;;;;;;;;;;;;;;;;;;5007432;28;19927;-66
2024/01/31 14:19:44;;;;;;;;;;;;;;;;;;4988410;28;19913;-66
2024/01/31 14:22:12;;;;;;;;;;;;;;;;;;4978004;28;19917;-67
2024/01/31 14:27:22;;;;;;;;;;;;;;;;;;4970485;28;20049;-69
2024/01/31 14:29:53;;;;;;;;;;;;;;;;;;4990288;28;20044;-71
2024/01/31 14:32:21;;;;;;;;;;;;;;;;;;4990767;28;20067;-71
2024/01/31 14:34:46;;;;;;;;;;;;;;;;;;4989527;28;20903;-69
2024/01/31 14:37:15;;;;;;;;;;;;;;;;;;4986493;28;19976;-70
2024/01/31 14:39:40;;;;;;;;;;;;;;;;;;4961884;28;20057;-72
2024/01/31 14:42:06;;;;;;;;;;;;;;;;;;4984512;28;20566;-73
2024/01/31 14:44:31;;;;;;;;;;;;;;;;;;4969241;28;19960;-71
2024/01/31 14:46:56;;;;;;;;;;;;;;;;;;4990593;28;19928;-70
2024/01/31 14:49:22;;;;;;;;;;;;;;;;;;4992866;28;20024;-70
2024/01/31 14:51:48;;;;;;;;;;;;;;;;;;4986363;28;19925;-72
2024/01/31 14:54:14;;;;;;;;;;;;;;;;;;4990617;28;19967;-71
2024/01/31 14:56:43;;;;;;;;;;;;;;;;;;4945938;28;19921;-70
2024/01/31 14:59:11;;;;;;;;;;;;;;;;;;4974337;28;19924;-70
2024/01/31 15:01:37;;;;;;;;;;;;;;;;;;4944001;28;19917;-72
2024/01/31 15:04:02;;;;;;;;;;;;;;;;;;4966141;28;19918;-70
2024/01/31 15:06:27;;;;;;;;;;;;;;;;;;4984433;28;19921;-70
2024/01/31 15:08:52;;;;;;;;;;;;;;;;;;4988200;28;20371;-70
2024/01/31 15:11:21;;;;;;;;;;;;;;;;;;4990417;28;20032;-70
2024/01/31 15:13:48;;;;;;;;;;;;;;;;;;4982566;28;20419;-70
2024/01/31 15:16:14;;;;;;;;;;;;;;;;;;5012396;28;19985;-72
2024/01/31 15:18:42;;;;;;;;;;;;;;;;;;4981089;28;20023;-70
2024/01/31 15:21:07;;;;;;;;;;;;;;;;;;4988912;28;20092;-70
2024/01/31 15:23:32;;;;;;;;;;;;;;;;;;4982260;28;19947;-69
2024/01/31 15:26:00;;;;;;;;;;;;;;;;;;4982200;28;19929;-69
2024/01/31 15:28:28;;;;;;;;;;;;;;;;;;4986079;28;20040;-71
2024/01/31 15:30:53;;;;;;;;;;;;;;;;;;4988700;28;19913;-70
2024/01/31 15:33:18;;;;;;;;;;;;;;;;;;4983106;28;19988;-69
2024/01/31 15:35:44;;;;;;;;;;;;;;;;;;4990058;28;19946;-73
2024/01/31 15:38:09;;;;;;;;;;;;;;;;;;4986685;28;19928;-71
2024/01/31 15:40:34;;;;;;;;;;;;;;;;;;4943704;28;19922;-70
2024/01/31 15:43:00;;;;;;;;;;;;;;;;;;4987375;28;19923;-70
2024/01/31 15:45:25;;;;;;;;;;;;;;;;;;4984261;28;19961;-74
2024/01/31 15:47:53;;;;;;;;;;;;;;;;;;4982473;28;20024;-70
2024/01/31 15:50:21;;;;;;;;;;;;;;;;;;4987346;28;19944;-68
2024/01/31 15:52:48;;;;;;;;;;;;;;;;;;4977242;28;20380;-73
2024/01/31 15:55:14;;;;;;;;;;;;;;;;;;4988881;28;20296;-73
2024/01/31 15:57:39;;;;;;;;;;;;;;;;;;4968016;28;19913;-68
2024/01/31 16:00:05;;;;;;;;;;;;;;;;;;4989852;28;19972;-74
2024/01/31 16:02:31;;;;;;;;;;;;;;;;;;4974729;28;20012;-72
2024/01/31 16:04:59;;;;;;;;;;;;;;;;;;4972105;28;19921;-70
2024/01/31 16:07:25;;;;;;;;;;;;;;;;;;4967309;28;19984;-72
2024/01/31 16:09:52;;;;;;;;;;;;;;;;;;4984550;28;19980;-70
2024/01/31 16:12:20;;;;;;;;;;;;;;;;;;4983815;28;19925;-70
2024/01/31 16:14:46;;;;;;;;;;;;;;;;;;4977927;28;20292;-71
2024/01/31 16:17:11;;;;;;;;;;;;;;;;;;4986713;28;19922;-71
2024/01/31 16:19:37;;;;;;;;;;;;;;;;;;4987693;28;19921;-71
2024/01/31 16:22:05;;;;;;;;;;;;;;;;;;4983759;28;21802;-71
2024/01/31 16:24:30;;;;;;;;;;;;;;;;;;4988406;28;19932;-70
2024/01/31 16:27:01;;;;;;;;;;;;;;;;;;4971313;28;19936;-71
2024/01/31 16:29:26;;;;;;;;;;;;;;;;;;4988708;28;19976;-72
2024/01/31 16:31:52;;;;;;;;;;;;;;;;;;4988343;28;20019;-70
2024/01/31 16:34:19;;;;;;;;;;;;;;;;;;4967942;28;19922;-70
2024/01/31 16:36:44;;;;;;;;;;;;;;;;;;4980981;28;20067;-69
2024/01/31 16:39:10;;;;;;;;;;;;;;;;;;4985660;28;19981;-71
2024/01/31 16:41:36;;;;;;;;;;;;;;;;;;4987792;28;20127;-72
2024/01/31 16:44:01;;;;;;;;;;;;;;;;;;4988519;28;20360;-71